Capitol Logistics 1867

Operating for CJT



CYVR
Vancouver International Airport
Vancouver, CA
CYYC
Calgary International Airport
Calgary, CA

Activity Log

Date Flight Route Aircraft Duration
12/20/2021 CPX1867 ADSIX CILLI Q983 NORET IGVEP6 B744 1h 12m
12/17/2021 CPX1867 ADSIX CILLI Q983 NORET IGVEP6 B763 1h 19m
11/28/2021 CPX1867 ADSIX CILLI Q983 NORET IGVEP6 B763 1h 16m
11/26/2021 CPX1867 ADSIX CILLI Q983 NORET IGVEP6 B763 1h 11m
11/26/2021 CPX1867 ADSIX CILLI Q983 NORET IGVEP6 B763 1h 14m
11/25/2021 CPX1867 ADSIX CILLI Q983 NORET IGVEP6 B744 1h 11m
11/25/2021 CPX1867 ADSIX CILLI Q983 NORET IGVEP6 B763 1h 26m
11/24/2021 CPX1867 ADSIX CILLI Q983 NORET IGVEP6 B763 1h 24m
11/24/2021 CPX1867 ADSIX CILLI Q983 NORET IGVEP6 B744 1h 14m
11/22/2021 CPX1867 ADSIX CILLI Q983 NORET IGVEP6 B744 1h 06m
11/22/2021 CPX1867 ADSIX CILLI Q983 NORET IGVEP6 B763 1h 19m
11/21/2021 CPX1867 ADSIX CILLI Q983 NORET IGVEP6 B763 1h 15m

Route Details

Aircraft Information
Group: Equipment Varies
Types: A30F,A31F,B738,B744,B752,B762,B763,MD11
Route Data
Demand: H
Distance: 371nm
Duration: 0h 54m
Recm'd Route: ADSIX CILLI Q983 NORET IGVEP6
Origin Wx: CYVR 270613Z 11003KT 8SM -RA FEW005 SCT008 BKN017 OVC028 13/13 A2976 RMK SF1SF3SC3NS2 SF TR SLP081
Dest. Wx: CYYC 270600Z 28005KT 260V340 15SM FEW260 16/M01 A2977 RMK CI1 CI TR SLP081 DENSITY ALT 4700FT
Notes:

Financial History
Total Freight: 1,700,959lbs
Average Load: 141,747lbs/flt
Fuel Used: 222,166lbs
Avg. Fuel Used: 18,514lbs/flt
Fuel Expense: $53,320
Avg. Fuel Expense: $4,443
Avg. Fuel Cost: $0.24/lbs
Total Gross Income: $4,456,513
Pilot Pay: $2,858
Total Expenses: $576,768
Total Revenue: $3,823,099
Average Revenue: $371,376.05